Time;durP1;ratioP1;P1;durP2;ratioP2;P2;SDS_P1;SDS_P2;PMS_P1;PMS_P2;Temp;Humidity;BMP_temperature;BMP_pressure;BME280_temperature;BME280_humidity;BME280_pressure;Samples;Min_cycle;Max_cycle;Signal;HPM_P1;HPM_P2
2021/04/18 00:01:21;;;;;;;15.43;9.88;;;11.50;46.60;;;;;;5134598;27;20380;-67
2021/04/18 00:03:47;;;;;;;14.20;10.10;;;11.40;46.60;;;;;;5134490;27;20031;-66
2021/04/18 00:06:12;;;;;;;15.55;10.70;;;11.40;46.60;;;;;;5134542;27;20038;-66
2021/04/18 00:08:38;;;;;;;16.73;10.75;;;11.40;46.60;;;;;;5134494;27;20096;-66
2021/04/18 00:11:04;;;;;;;15.77;10.90;;;11.40;46.60;;;;;;5134457;27;20030;-67
2021/04/18 00:13:30;;;;;;;16.83;10.63;;;11.40;46.60;;;;;;5134360;27;20384;-67
2021/04/18 00:15:56;;;;;;;18.33;11.15;;;11.40;46.60;;;;;;5134397;27;20027;-67
2021/04/18 00:18:21;;;;;;;12.07;9.10;;;11.40;46.60;;;;;;5134316;27;20019;-67
2021/04/18 00:20:47;;;;;;;14.65;10.23;;;11.40;46.50;;;;;;5133916;27;20020;-67
2021/04/18 00:23:13;;;;;;;13.65;9.27;;;11.40;46.60;;;;;;5134283;27;20027;-67
2021/04/18 00:25:39;;;;;;;13.35;9.25;;;11.40;46.50;;;;;;5114405;28;20054;-67
2021/04/18 00:28:05;;;;;;;11.95;8.73;;;11.40;46.50;;;;;;5119750;27;20024;-67
2021/04/18 00:30:30;;;;;;;13.43;9.10;;;11.40;46.50;;;;;;5144541;27;20023;-67
2021/04/18 00:32:56;;;;;;;12.68;8.45;;;11.40;46.50;;;;;;5147255;27;20357;-67
2021/04/18 00:35:22;;;;;;;13.20;9.20;;;11.40;46.50;;;;;;5133023;27;20027;-67
2021/04/18 00:37:48;;;;;;;14.70;9.65;;;11.50;46.70;;;;;;5132539;27;20024;-67
2021/04/18 00:40:17;;;;;;;14.68;9.88;;;11.50;46.60;;;;;;5133665;27;20043;-67
2021/04/18 00:42:43;;;;;;;15.90;11.35;;;11.50;46.60;;;;;;5133237;27;20095;-67
2021/04/18 00:45:11;;;;;;;15.68;10.75;;;11.50;46.60;;;;;;5137479;27;20097;-67
2021/04/18 00:47:43;;;;;;;14.20;9.77;;;11.50;46.60;;;;;;5153443;27;20026;-66
2021/04/18 00:50:11;;;;;;;13.48;9.27;;;11.50;46.70;;;;;;5149157;27;20046;-67
2021/04/18 00:52:38;;;;;;;14.63;8.85;;;11.50;46.70;;;;;;5144349;27;20030;-66
2021/04/18 00:55:08;;;;;;;12.10;8.90;;;11.50;46.60;;;;;;5145472;27;20076;-67
2021/04/18 00:57:34;;;;;;;17.42;10.15;;;11.60;46.60;;;;;;5153193;27;20115;-67
2021/04/18 01:00:04;;;;;;;12.90;8.93;;;11.60;46.60;;;;;;5136956;27;20019;-67
2021/04/18 01:02:30;;;;;;;13.98;9.30;;;11.60;46.50;;;;;;5126174;27;20015;-67
2021/04/18 01:04:55;;;;;;;14.25;9.35;;;11.60;46.50;;;;;;5130778;27;20548;-67
2021/04/18 01:07:21;;;;;;;15.23;9.13;;;11.60;46.40;;;;;;5132010;27;20098;-67
2021/04/18 01:09:47;;;;;;;14.77;9.48;;;11.60;46.40;;;;;;5147120;27;20030;-67
2021/04/18 01:12:14;;;;;;;16.10;11.40;;;11.60;46.50;;;;;;5137707;27;20044;-67
2021/04/18 01:14:40;;;;;;;15.77;9.40;;;11.60;46.40;;;;;;5131228;27;20042;-67
2021/04/18 01:17:07;;;;;;;13.55;9.50;;;11.60;46.50;;;;;;5134322;27;20023;-67
2021/04/18 01:19:32;;;;;;;14.20;9.70;;;11.60;46.40;;;;;;5134118;27;20041;-67
2021/04/18 01:21:58;;;;;;;13.23;8.98;;;11.60;46.40;;;;;;5134892;27;20384;-67
2021/04/18 01:24:25;;;;;;;14.73;11.55;;;11.60;46.40;;;;;;5132710;27;20038;-67
2021/04/18 01:26:51;;;;;;;14.10;10.20;;;11.60;46.30;;;;;;5134460;27;20045;-67
2021/04/18 01:29:17;;;;;;;12.02;9.35;;;11.60;46.40;;;;;;5135061;27;20110;-67
2021/04/18 01:31:44;;;;;;;16.33;9.98;;;11.60;46.30;;;;;;5133369;27;20118;-67
2021/04/18 01:34:14;;;;;;;16.20;9.95;;;11.60;46.40;;;;;;5133916;27;20019;-67
2021/04/18 01:36:48;;;;;;;16.10;10.35;;;11.60;46.40;;;;;;5134295;27;20015;-67
2021/04/18 01:39:15;;;;;;;18.00;10.90;;;11.60;46.40;;;;;;5134907;27;20030;-67
2021/04/18 01:41:42;;;;;;;14.70;9.75;;;11.60;46.40;;;;;;5134816;27;20019;-67
2021/04/18 01:44:12;;;;;;;13.20;9.25;;;11.60;46.30;;;;;;5133126;27;20438;-67
2021/04/18 01:46:46;;;;;;;13.93;9.65;;;11.60;46.30;;;;;;5134744;27;20035;-67
2021/04/18 01:49:12;;;;;;;12.37;8.87;;;11.60;46.30;;;;;;5134134;27;20022;-67
2021/04/18 01:51:38;;;;;;;14.60;8.55;;;11.60;46.20;;;;;;5133855;27;20400;-67
2021/04/18 01:54:05;;;;;;;15.63;9.15;;;11.60;46.30;;;;;;5135425;27;20031;-67
2021/04/18 01:56:31;;;;;;;12.30;8.52;;;11.60;46.30;;;;;;5132314;27;20016;-67
2021/04/18 01:58:56;;;;;;;12.73;8.93;;;11.60;46.30;;;;;;5134598;27;20500;-67
2021/04/18 02:01:23;;;;;;;15.02;9.50;;;11.60;46.20;;;;;;5134643;27;20027;-67
2021/04/18 02:03:50;;;;;;;11.77;8.23;;;11.60;46.20;;;;;;5134187;27;20027;-67
2021/04/18 02:06:15;;;;;;;12.95;9.30;;;11.60;46.20;;;;;;5138428;27;20015;-67
2021/04/18 02:08:41;;;;;;;15.38;9.35;;;11.60;46.20;;;;;;5131710;27;20522;-67
2021/04/18 02:11:07;;;;;;;14.55;8.90;;;11.60;46.20;;;;;;5132310;27;20027;-67
2021/04/18 02:13:33;;;;;;;14.25;9.15;;;11.60;46.30;;;;;;5131862;27;20023;-67
2021/04/18 02:15:59;;;;;;;13.27;9.60;;;11.60;46.30;;;;;;5133948;27;20046;-67
2021/04/18 02:18:25;;;;;;;12.88;8.52;;;11.50;46.30;;;;;;5133828;27;20051;-67
2021/04/18 02:20:51;;;;;;;13.85;9.05;;;11.50;46.20;;;;;;5133285;27;20131;-67
2021/04/18 02:23:16;;;;;;;14.05;9.02;;;11.50;46.30;;;;;;5132665;27;20119;-67
2021/04/18 02:25:42;;;;;;;12.57;8.63;;;11.50;46.40;;;;;;5133507;27;20042;-67
2021/04/18 02:28:09;;;;;;;11.98;8.57;;;11.50;46.70;;;;;;5133759;27;20035;-67
2021/04/18 02:30:37;;;;;;;14.75;8.60;;;11.50;46.70;;;;;;5132106;27;20025;-67
2021/04/18 02:33:03;;;;;;;13.25;8.68;;;11.50;46.80;;;;;;5133766;27;20016;-67
2021/04/18 02:35:29;;;;;;;13.52;9.48;;;11.50;46.90;;;;;;5133624;27;20030;-67
2021/04/18 02:37:55;;;;;;;18.70;9.15;;;11.50;46.80;;;;;;5132348;27;20028;-67
2021/04/18 02:40:21;;;;;;;13.27;9.02;;;11.50;46.90;;;;;;5133596;27;20467;-67
2021/04/18 02:42:46;;;;;;;13.52;9.20;;;11.50;46.90;;;;;;5132014;27;20544;-67
2021/04/18 02:45:13;;;;;;;12.88;9.52;;;11.40;46.90;;;;;;5133586;27;20087;-67
2021/04/18 02:47:39;;;;;;;13.98;9.40;;;11.40;47.00;;;;;;5133467;27;20023;-67
2021/04/18 02:50:07;;;;;;;14.57;9.85;;;11.40;47.10;;;;;;5132008;27;20399;-67
2021/04/18 02:52:33;;;;;;;14.02;8.80;;;11.40;47.10;;;;;;5131394;27;20051;-67
2021/04/18 02:54:59;;;;;;;13.80;8.80;;;11.40;47.10;;;;;;5133295;27;20484;-67
2021/04/18 02:57:25;;;;;;;14.82;9.07;;;11.40;47.10;;;;;;5132826;27;20076;-67
2021/04/18 02:59:51;;;;;;;13.77;9.55;;;11.40;47.10;;;;;;5130976;27;20027;-67
2021/04/18 03:02:18;;;;;;;16.65;10.35;;;11.50;47.10;;;;;;5132873;27;20027;-67
2021/04/18 03:04:44;;;;;;;14.45;10.45;;;11.50;47.10;;;;;;5133245;27;20034;-67
2021/04/18 03:07:10;;;;;;;16.77;10.27;;;11.40;47.00;;;;;;5133086;27;20023;-67
2021/04/18 03:09:36;;;;;;;14.70;10.35;;;11.40;46.90;;;;;;5132925;27;20023;-67
2021/04/18 03:12:01;;;;;;;15.50;9.57;;;11.40;46.90;;;;;;5132964;27;20516;-67
2021/04/18 03:14:27;;;;;;;16.67;9.63;;;11.40;46.90;;;;;;5132918;27;20034;-67
2021/04/18 03:16:53;;;;;;;12.93;8.55;;;11.40;46.90;;;;;;5130736;27;20027;-67
2021/04/18 03:19:19;;;;;;;13.25;8.50;;;11.40;47.00;;;;;;5132102;27;20535;-67
2021/04/18 03:21:45;;;;;;;13.55;8.23;;;11.40;47.10;;;;;;5133935;27;20023;-67
2021/04/18 03:24:11;;;;;;;13.07;9.05;;;11.40;47.10;;;;;;5132628;27;20110;-67
2021/04/18 03:26:36;;;;;;;10.38;7.75;;;11.40;47.20;;;;;;5113706;28;20507;-67
2021/04/18 03:29:02;;;;;;;16.42;9.55;;;11.40;47.30;;;;;;5113025;28;20106;-67
2021/04/18 03:31:28;;;;;;;14.13;9.23;;;11.40;47.50;;;;;;5129313;27;20035;-67
2021/04/18 03:33:54;;;;;;;10.80;7.97;;;11.40;47.20;;;;;;5134140;27;20457;-67
2021/04/18 03:36:20;;;;;;;11.93;8.40;;;11.40;47.20;;;;;;5134109;27;20027;-67
2021/04/18 03:38:46;;;;;;;12.55;8.88;;;11.40;47.20;;;;;;5133969;27;20152;-67
2021/04/18 03:41:11;;;;;;;12.68;9.07;;;11.40;47.20;;;;;;5126533;27;20024;-67
2021/04/18 03:43:37;;;;;;;13.07;8.93;;;11.40;47.30;;;;;;5113942;27;20023;-67
2021/04/18 03:46:03;;;;;;;10.45;8.13;;;11.40;47.30;;;;;;5127016;27;20086;-67
2021/04/18 03:48:29;;;;;;;13.45;8.30;;;11.40;47.30;;;;;;5133237;27;20072;-67
2021/04/18 03:50:55;;;;;;;13.13;8.73;;;11.40;47.30;;;;;;5132431;27;20043;-67
2021/04/18 03:53:21;;;;;;;11.38;8.30;;;11.40;47.40;;;;;;5133545;27;20031;-67
2021/04/18 03:55:47;;;;;;;12.65;8.43;;;11.40;47.40;;;;;;5122549;27;20038;-67
2021/04/18 03:58:12;;;;;;;13.50;9.18;;;11.40;47.50;;;;;;5112529;28;20380;-67
2021/04/18 04:00:38;;;;;;;13.77;9.90;;;11.40;47.60;;;;;;5114089;28;20023;-67
2021/04/18 04:03:04;;;;;;;12.38;9.15;;;11.40;47.70;;;;;;5113946;28;20020;-67
2021/04/18 04:05:30;;;;;;;19.35;11.88;;;11.40;47.60;;;;;;5113978;28;20111;-67
2021/04/18 04:07:56;;;;;;;23.45;11.70;;;11.40;47.60;;;;;;5127814;27;20433;-67
2021/04/18 04:10:22;;;;;;;16.73;10.10;;;11.30;47.50;;;;;;5134159;27;20031;-67
2021/04/18 04:12:47;;;;;;;16.15;10.48;;;11.30;47.30;;;;;;5134444;27;20114;-67
2021/04/18 04:15:13;;;;;;;17.55;11.40;;;11.30;47.30;;;;;;5132984;27;20027;-67
2021/04/18 04:17:39;;;;;;;13.38;9.65;;;11.30;47.30;;;;;;5134389;27;20019;-67
2021/04/18 04:20:06;;;;;;;17.40;10.90;;;11.20;47.30;;;;;;5134177;27;20015;-67
2021/04/18 04:22:32;;;;;;;15.02;10.35;;;11.20;47.40;;;;;;5132763;27;20152;-67
2021/04/18 04:24:58;;;;;;;13.05;9.05;;;11.20;47.30;;;;;;5134263;27;20110;-67
2021/04/18 04:27:24;;;;;;;12.98;9.25;;;11.20;47.40;;;;;;5134170;27;20489;-67
2021/04/18 04:29:51;;;;;;;15.07;10.30;;;11.20;47.50;;;;;;5134186;27;20055;-67
2021/04/18 04:32:17;;;;;;;15.52;9.18;;;11.20;47.50;;;;;;5114952;27;20034;-67
2021/04/18 04:34:43;;;;;;;17.25;9.90;;;11.20;47.60;;;;;;5112337;28;20494;-67
2021/04/18 04:37:09;;;;;;;15.90;10.40;;;11.20;47.70;;;;;;5113555;28;20027;-67
2021/04/18 04:39:35;;;;;;;15.60;9.90;;;11.20;47.80;;;;;;5113349;28;20055;-67
2021/04/18 04:42:01;;;;;;;18.30;10.30;;;11.20;47.80;;;;;;5113480;28;20020;-67
2021/04/18 04:44:29;;;;;;;13.60;9.57;;;11.20;47.90;;;;;;5113520;28;20426;-67
2021/04/18 04:46:56;;;;;;;14.60;9.70;;;11.20;47.90;;;;;;5113777;28;20024;-67
2021/04/18 04:49:22;;;;;;;15.13;10.30;;;11.20;47.80;;;;;;5118760;28;20048;-67
2021/04/18 04:51:48;;;;;;;18.58;10.45;;;11.20;47.80;;;;;;5133761;27;20054;-67
2021/04/18 04:54:13;;;;;;;15.40;9.13;;;11.20;47.80;;;;;;5133584;27;20019;-67
2021/04/18 04:56:39;;;;;;;15.00;8.88;;;11.20;47.80;;;;;;5125956;27;20023;-67
2021/04/18 04:59:05;;;;;;;11.35;7.82;;;11.20;47.80;;;;;;5113387;28;20027;-67
2021/04/18 05:01:31;;;;;;;12.30;8.35;;;11.20;47.90;;;;;;5111987;28;20050;-67
2021/04/18 05:03:57;;;;;;;12.20;8.35;;;11.30;48.00;;;;;;5113320;28;20076;-67
2021/04/18 05:06:24;;;;;;;12.77;8.90;;;11.30;48.00;;;;;;5113311;28;20020;-67
2021/04/18 05:08:50;;;;;;;12.32;8.73;;;11.30;48.00;;;;;;5113546;28;20027;-67
2021/04/18 05:11:16;;;;;;;16.70;10.63;;;11.30;48.30;;;;;;5113175;28;20149;-67
2021/04/18 05:13:42;;;;;;;16.38;10.70;;;11.40;48.60;;;;;;5123734;28;20027;-67
2021/04/18 05:16:08;;;;;;;16.48;10.82;;;11.40;47.90;;;;;;5133106;27;20046;-67
2021/04/18 05:18:33;;;;;;;17.98;12.25;;;11.40;47.80;;;;;;5133622;27;20094;-68
2021/04/18 05:20:59;;;;;;;15.82;11.45;;;11.40;47.60;;;;;;5133741;27;20098;-67
2021/04/18 05:23:27;;;;;;;18.45;11.77;;;11.40;47.50;;;;;;5133962;27;20015;-67
2021/04/18 05:25:53;;;;;;;16.08;11.48;;;11.30;47.40;;;;;;5133684;27;20015;-67
2021/04/18 05:28:19;;;;;;;19.08;11.20;;;11.30;47.50;;;;;;5133423;27;20027;-67
2021/04/18 05:30:45;;;;;;;17.52;10.80;;;11.40;47.60;;;;;;5133626;27;20041;-67
2021/04/18 05:33:11;;;;;;;17.63;11.68;;;11.30;47.60;;;;;;5133447;27;20027;-67
2021/04/18 05:35:37;;;;;;;18.27;11.55;;;11.30;47.70;;;;;;5133466;27;20029;-67
2021/04/18 05:38:02;;;;;;;18.45;11.93;;;11.40;47.70;;;;;;5133493;27;20387;-68
2021/04/18 05:40:28;;;;;;;16.98;10.80;;;11.40;47.80;;;;;;5133402;27;20027;-67
2021/04/18 05:42:54;;;;;;;15.93;10.80;;;11.40;47.70;;;;;;5128121;27;20051;-67
2021/04/18 05:45:20;;;;;;;16.73;11.30;;;11.40;47.60;;;;;;5114844;28;20451;-67
2021/04/18 05:47:46;;;;;;;15.80;10.57;;;11.40;47.50;;;;;;5133457;27;20027;-67
2021/04/18 05:50:13;;;;;;;15.30;10.45;;;11.50;47.60;;;;;;5133292;27;20416;-67
2021/04/18 05:52:39;;;;;;;16.85;11.55;;;11.50;47.60;;;;;;5135170;27;20433;-67
2021/04/18 05:55:08;;;;;;;17.15;12.50;;;11.50;47.60;;;;;;5137014;27;20023;-67
2021/04/18 05:57:33;;;;;;;16.17;11.52;;;11.50;48.10;;;;;;5115267;28;20016;-67
2021/04/18 05:59:59;;;;;;;20.08;13.18;;;11.50;47.60;;;;;;5116519;28;20020;-67
2021/04/18 06:02:25;;;;;;;15.35;10.38;;;11.50;47.50;;;;;;5116443;28;20024;-67
2021/04/18 06:04:51;;;;;;;15.07;10.73;;;11.60;47.50;;;;;;5115002;28;20101;-67
2021/04/18 06:07:16;;;;;;;17.05;11.35;;;11.50;47.40;;;;;;5116268;28;20023;-67
2021/04/18 06:09:42;;;;;;;14.35;9.95;;;11.50;47.60;;;;;;5121178;27;20023;-67
2021/04/18 06:12:09;;;;;;;17.05;11.13;;;11.60;47.60;;;;;;5136665;27;20047;-67
2021/04/18 06:14:34;;;;;;;14.65;9.88;;;11.60;47.60;;;;;;5136544;27;20019;-67
2021/04/18 06:17:00;;;;;;;15.30;10.00;;;11.60;47.70;;;;;;5136225;27;20487;-67
2021/04/18 06:19:26;;;;;;;14.48;10.07;;;11.70;47.80;;;;;;5136513;27;20122;-67
2021/04/18 06:21:52;;;;;;;15.70;11.63;;;11.70;47.80;;;;;;5136523;27;20027;-67
2021/04/18 06:24:18;;;;;;;19.20;12.52;;;11.80;47.60;;;;;;5136474;27;20035;-67
2021/04/18 06:26:43;;;;;;;18.15;12.23;;;11.80;47.40;;;;;;5134419;27;20031;-67
2021/04/18 06:29:09;;;;;;;16.52;10.85;;;11.80;47.20;;;;;;5136305;27;20023;-67
2021/04/18 06:31:35;;;;;;;17.02;12.18;;;11.70;47.10;;;;;;5136303;27;20590;-67
2021/04/18 06:34:01;;;;;;;18.52;12.02;;;11.70;47.10;;;;;;5136189;27;20023;-67
2021/04/18 06:36:27;;;;;;;17.42;12.05;;;11.70;47.10;;;;;;5136273;27;20096;-67
2021/04/18 06:38:52;;;;;;;20.00;12.65;;;11.70;47.20;;;;;;5136152;27;20094;-67
2021/04/18 06:41:23;;;;;;;21.15;13.02;;;11.70;47.20;;;;;;5136123;27;20060;-67
2021/04/18 06:43:50;;;;;;;17.88;12.65;;;11.70;47.20;;;;;;5136010;27;20110;-67
2021/04/18 06:46:18;;;;;;;18.58;13.00;;;11.70;47.40;;;;;;5135615;27;20034;-67
2021/04/18 06:48:45;;;;;;;22.60;13.80;;;11.70;47.30;;;;;;5135569;27;20103;-67
2021/04/18 06:51:11;;;;;;;19.42;13.32;;;11.70;47.40;;;;;;5119093;27;20042;-67
2021/04/18 06:53:38;;;;;;;21.02;13.18;;;11.70;47.40;;;;;;5115307;28;20023;-68
2021/04/18 06:56:07;;;;;;;20.23;13.70;;;11.70;48.10;;;;;;5115256;28;20051;-67
2021/04/18 06:58:33;;;;;;;22.13;14.23;;;11.70;47.40;;;;;;5115232;28;20123;-67
2021/04/18 07:01:00;;;;;;;24.23;14.18;;;11.70;47.30;;;;;;5131066;27;20073;-67
2021/04/18 07:03:26;;;;;;;23.67;15.48;;;11.70;47.40;;;;;;5114089;28;20023;-67
2021/04/18 07:06:00;;;;;;;22.02;14.10;;;11.70;47.50;;;;;;5115035;28;20481;-67
2021/04/18 07:08:31;;;;;;;19.58;12.68;;;11.70;47.40;;;;;;5114995;28;20028;-67
2021/04/18 07:11:15;;;;;;;20.20;13.80;;;11.70;47.40;;;;;;5114956;27;20026;-67
2021/04/18 07:13:44;;;;;;;19.37;12.93;;;11.80;47.60;;;;;;5116374;27;20027;-67
2021/04/18 07:16:27;;;;;;;18.98;12.60;;;11.80;47.50;;;;;;5133744;27;20307;-67
2021/04/18 07:18:55;;;;;;;19.27;12.77;;;11.90;47.50;;;;;;5135489;27;20019;-67
2021/04/18 07:21:21;;;;;;;18.23;11.60;;;11.90;47.50;;;;;;5133488;27;20023;-67
2021/04/18 07:23:47;;;;;;;19.77;13.82;;;12.00;47.50;;;;;;5123231;27;20077;-67
2021/04/18 07:26:26;;;;;;;20.02;14.25;;;12.00;47.40;;;;;;5114681;28;20473;-67
2021/04/18 07:29:12;;;;;;;20.15;12.57;;;12.10;47.00;;;;;;5114575;28;20095;-67
2021/04/18 07:31:38;;;;;;;18.17;13.05;;;12.10;46.90;;;;;;5113207;28;20024;-67
2021/04/18 07:34:12;;;;;;;18.92;13.02;;;12.20;46.70;;;;;;5114278;28;20027;-67
2021/04/18 07:36:41;;;;;;;21.65;13.30;;;12.20;46.60;;;;;;5114357;28;20417;-67
2021/04/18 07:39:08;;;;;;;21.52;14.32;;;12.20;46.60;;;;;;5114353;28;20024;-67
2021/04/18 07:41:41;;;;;;;17.52;11.90;;;12.30;46.50;;;;;;5114311;28;20031;-67
2021/04/18 07:44:08;;;;;;;25.02;13.25;;;12.30;46.40;;;;;;5114134;28;20102;-68
2021/04/18 07:46:34;;;;;;;17.50;11.45;;;12.40;46.50;;;;;;5133203;27;20031;-68
2021/04/18 07:49:01;;;;;;;23.10;13.35;;;12.50;46.50;;;;;;5134653;27;20027;-68
2021/04/18 07:51:27;;;;;;;19.33;11.63;;;12.50;46.40;;;;;;5115765;27;20062;-68
2021/04/18 07:53:53;;;;;;;17.42;12.02;;;12.50;46.80;;;;;;5124402;27;20046;-67
2021/04/18 07:56:19;;;;;;;16.88;11.10;;;12.60;46.20;;;;;;5133209;27;20016;-68
2021/04/18 07:58:45;;;;;;;18.65;12.25;;;12.60;46.40;;;;;;5133435;27;20102;-67
2021/04/18 08:01:12;;;;;;;15.43;10.90;;;12.70;46.50;;;;;;5119129;27;20019;-68
2021/04/18 08:03:42;;;;;;;20.02;12.23;;;12.80;46.60;;;;;;5124168;27;20480;-68
2021/04/18 08:06:08;;;;;;;17.58;11.93;;;12.80;46.40;;;;;;5134364;27;20177;-68
2021/04/18 08:08:49;;;;;;;17.25;12.68;;;12.90;46.30;;;;;;5134366;27;20035;-68
2021/04/18 08:11:17;;;;;;;23.23;13.18;;;12.90;46.10;;;;;;5134227;27;20019;-68
2021/04/18 08:13:48;;;;;;;20.45;13.13;;;13.00;46.00;;;;;;5134168;27;20089;-68
2021/04/18 08:16:14;;;;;;;19.15;12.98;;;13.00;45.90;;;;;;5132136;27;20019;-68
2021/04/18 08:18:45;;;;;;;28.67;13.10;;;13.00;45.90;;;;;;5134045;27;20099;-68
2021/04/18 08:21:34;;;;;;;19.05;12.65;;;13.10;45.90;;;;;;5132255;27;20051;-68
2021/04/18 08:24:01;;;;;;;17.38;12.25;;;13.10;45.70;;;;;;5132788;27;20380;-68
2021/04/18 08:26:31;;;;;;;20.98;12.68;;;13.10;45.60;;;;;;5128170;27;20016;-68
2021/04/18 08:29:03;;;;;;;20.80;12.02;;;13.20;45.60;;;;;;5113555;28;20085;-68
2021/04/18 08:31:31;;;;;;;20.13;13.25;;;13.20;45.60;;;;;;5113564;28;20090;-68
2021/04/18 08:34:04;;;;;;;20.25;13.02;;;13.30;45.40;;;;;;5113742;28;20511;-68
2021/04/18 08:36:32;;;;;;;25.00;12.30;;;13.30;45.10;;;;;;5113468;28;20027;-68
2021/04/18 08:39:01;;;;;;;17.63;11.77;;;13.30;45.00;;;;;;5112215;28;20034;-68
2021/04/18 08:41:44;;;;;;;19.75;12.95;;;13.40;44.90;;;;;;5111345;28;20031;-68
2021/04/18 08:44:17;;;;;;;16.40;11.05;;;13.40;44.80;;;;;;5111876;28;20053;-67
2021/04/18 08:46:48;;;;;;;16.15;11.05;;;13.40;44.80;;;;;;5124008;28;20066;-70
2021/04/18 08:49:31;;;;;;;17.40;10.80;;;13.50;44.90;;;;;;5119621;28;20053;-68
2021/04/18 08:51:58;;;;;;;16.77;12.13;;;13.50;44.70;;;;;;5127300;28;20546;-68
2021/04/18 08:54:32;;;;;;;20.13;11.55;;;13.60;44.80;;;;;;5113015;28;20023;-68
2021/04/18 08:57:01;;;;;;;19.98;12.75;;;13.60;44.40;;;;;;5119439;28;20020;-68
2021/04/18 08:59:27;;;;;;;18.50;12.73;;;13.70;44.10;;;;;;5117648;28;20031;-68
2021/04/18 09:01:58;;;;;;;14.80;10.93;;;13.70;43.80;;;;;;5133630;27;20016;-68
2021/04/18 09:04:25;;;;;;;15.68;10.98;;;13.70;43.70;;;;;;5133710;27;20106;-68
2021/04/18 09:06:51;;;;;;;16.13;10.57;;;13.70;43.60;;;;;;5133401;27;20061;-67
2021/04/18 09:09:18;;;;;;;17.42;11.73;;;13.70;43.70;;;;;;5122315;27;20039;-68
2021/04/18 09:11:47;;;;;;;16.92;12.07;;;13.70;43.60;;;;;;5113008;28;20023;-68
2021/04/18 09:14:18;;;;;;;17.35;12.05;;;13.70;43.60;;;;;;5112881;28;20048;-68
2021/04/18 09:16:44;;;;;;;14.20;10.75;;;13.70;43.50;;;;;;5120768;28;20022;-68
2021/04/18 09:19:29;;;;;;;14.75;10.70;;;13.80;43.40;;;;;;5133104;27;20049;-68
2021/04/18 09:22:19;;;;;;;15.15;10.60;;;13.80;43.20;;;;;;5131888;27;20050;-68
2021/04/18 09:24:51;;;;;;;15.38;10.48;;;13.80;43.20;;;;;;5110749;28;20035;-68
2021/04/18 09:27:25;;;;;;;13.20;9.65;;;13.90;43.20;;;;;;5124506;27;20050;-68
2021/04/18 09:29:51;;;;;;;14.65;9.90;;;14.00;43.10;;;;;;5134279;27;20050;-67
2021/04/18 09:32:25;;;;;;;14.80;10.38;;;14.10;43.10;;;;;;5135786;27;20062;-68
2021/04/18 09:34:52;;;;;;;14.75;10.52;;;14.10;42.90;;;;;;5135680;27;20030;-68
2021/04/18 09:37:27;;;;;;;13.20;9.55;;;14.20;42.70;;;;;;5135712;27;20064;-68
2021/04/18 09:39:59;;;;;;;15.68;10.75;;;14.30;42.90;;;;;;5130066;27;20042;-68
2021/04/18 09:42:27;;;;;;;14.57;10.32;;;14.40;42.90;;;;;;5126085;27;20027;-67
2021/04/18 09:45:04;;;;;;;15.20;10.15;;;14.50;42.90;;;;;;5135783;27;20446;-72
2021/04/18 09:47:30;;;;;;;17.52;11.73;;;14.60;42.80;;;;;;5126657;27;20380;-72
2021/04/18 09:49:59;;;;;;;15.52;10.45;;;14.70;42.50;;;;;;5116324;28;20107;-71
2021/04/18 09:52:27;;;;;;;15.30;10.45;;;14.70;42.30;;;;;;5116527;28;20094;-71
2021/04/18 09:54:54;;;;;;;17.75;10.48;;;14.80;42.10;;;;;;5116422;28;20026;-72
2021/04/18 09:57:26;;;;;;;12.77;9.18;;;14.90;41.80;;;;;;5116343;28;20074;-71
2021/04/18 10:00:23;;;;;;;13.63;9.80;;;14.90;41.60;;;;;;5116451;28;20508;-71
2021/04/18 10:03:27;;;;;;;14.40;9.75;;;15.00;41.90;;;;;;5124463;27;20036;-72
2021/04/18 10:05:52;;;;;;;12.07;9.23;;;15.10;41.30;;;;;;5125603;27;20361;-72
2021/04/18 10:08:29;;;;;;;12.27;9.07;;;15.20;41.60;;;;;;5135513;27;20019;-71
2021/04/18 10:11:07;;;;;;;14.07;9.90;;;15.30;41.40;;;;;;5134911;27;20488;-71
2021/04/18 10:13:50;;;;;;;13.82;10.27;;;15.40;41.20;;;;;;5136513;27;20023;-72
2021/04/18 10:16:18;;;;;;;16.92;10.93;;;15.40;41.10;;;;;;5136377;27;20023;-72
2021/04/18 10:19:07;;;;;;;16.13;10.60;;;15.50;41.10;;;;;;5136452;27;20050;-71
2021/04/18 10:21:33;;;;;;;16.60;11.40;;;15.60;41.20;;;;;;5136000;27;20019;-71
2021/04/18 10:24:00;;;;;;;15.98;11.43;;;15.60;40.70;;;;;;5145630;27;20022;-73
2021/04/18 10:26:26;;;;;;;19.40;11.07;;;15.60;40.60;;;;;;5139571;27;20072;-72
2021/04/18 10:28:54;;;;;;;16.00;11.75;;;15.70;40.70;;;;;;5136376;27;20081;-71
2021/04/18 10:31:22;;;;;;;15.07;10.45;;;15.70;40.60;;;;;;5136356;27;20177;-72
2021/04/18 10:33:48;;;;;;;15.50;10.75;;;15.70;40.70;;;;;;5136590;27;20019;-72
2021/04/18 10:36:15;;;;;;;13.65;10.50;;;15.70;40.90;;;;;;5137089;27;20480;-72
2021/04/18 10:38:42;;;;;;;19.67;13.38;;;15.90;41.20;;;;;;5141094;27;20497;-72
2021/04/18 10:41:08;;;;;;;14.25;10.35;;;16.00;40.90;;;;;;5132846;27;20384;-72
2021/04/18 10:43:35;;;;;;;16.00;11.35;;;16.20;41.00;;;;;;5136115;27;20408;-72
2021/04/18 10:46:02;;;;;;;15.20;11.30;;;16.40;40.80;;;;;;5135785;27;20023;-71
2021/04/18 10:48:27;;;;;;;17.83;11.73;;;16.70;40.90;;;;;;5135992;27;20487;-72
2021/04/18 10:50:53;;;;;;;16.83;12.27;;;17.00;40.30;;;;;;5140104;27;20078;-71
2021/04/18 10:53:20;;;;;;;16.75;11.32;;;17.20;39.70;;;;;;5135652;27;20541;-71
2021/04/18 10:55:46;;;;;;;16.65;11.50;;;17.50;39.30;;;;;;5135757;27;20028;-71
2021/04/18 10:58:14;;;;;;;13.95;11.00;;;17.70;38.90;;;;;;5135795;27;20019;-71
2021/04/18 11:00:41;;;;;;;15.82;11.13;;;17.90;38.60;;;;;;5135710;27;20071;-72
2021/04/18 11:03:07;;;;;;;15.68;11.40;;;18.10;37.90;;;;;;5135739;27;20026;-71
2021/04/18 11:05:33;;;;;;;15.60;10.55;;;18.10;37.20;;;;;;5148090;27;20035;-71
2021/04/18 11:07:59;;;;;;;11.50;9.00;;;18.20;36.70;;;;;;5138176;27;20110;-70
2021/04/18 11:10:25;;;;;;;14.05;10.75;;;18.20;37.00;;;;;;5135423;27;20055;-71
2021/04/18 11:12:50;;;;;;;15.13;11.02;;;18.20;36.20;;;;;;5145659;27;20027;-71
2021/04/18 11:15:17;;;;;;;14.75;9.77;;;18.10;36.20;;;;;;5117923;27;20377;-70
2021/04/18 11:17:42;;;;;;;12.93;10.25;;;18.10;36.30;;;;;;5133562;27;20024;-71
2021/04/18 11:20:11;;;;;;;14.35;10.55;;;17.90;35.40;;;;;;5152017;27;20023;-71
2021/04/18 11:22:38;;;;;;;13.68;10.60;;;17.70;35.80;;;;;;5123730;27;20011;-71
2021/04/18 11:25:12;;;;;;;11.95;9.40;;;17.60;35.70;;;;;;5135425;27;20075;-71
2021/04/18 11:27:39;;;;;;;11.55;9.23;;;17.40;36.10;;;;;;5135231;27;20023;-71
2021/04/18 11:30:07;;;;;;;12.32;8.80;;;17.20;36.40;;;;;;5141212;27;20392;-71
2021/04/18 11:32:32;;;;;;;15.40;10.20;;;17.00;36.80;;;;;;5144575;27;20426;-71
2021/04/18 11:34:58;;;;;;;13.77;10.02;;;17.00;37.10;;;;;;5134861;27;20073;-70
2021/04/18 11:37:24;;;;;;;11.98;9.45;;;16.90;37.20;;;;;;5133585;27;20442;-70
2021/04/18 11:39:50;;;;;;;13.45;9.95;;;16.80;37.40;;;;;;5149370;27;20337;-70
2021/04/18 11:42:16;;;;;;;12.73;9.73;;;16.70;37.40;;;;;;5155614;27;20019;-70
2021/04/18 11:44:42;;;;;;;12.30;9.40;;;16.70;37.60;;;;;;5155384;27;20019;-70
2021/04/18 11:47:08;;;;;;;12.55;9.07;;;16.70;37.80;;;;;;5141778;27;20031;-70
2021/04/18 11:49:33;;;;;;;11.75;9.20;;;16.60;37.80;;;;;;5132957;27;20023;-70
2021/04/18 11:51:59;;;;;;;14.15;9.75;;;16.70;38.00;;;;;;5134086;27;20088;-71
2021/04/18 11:54:25;;;;;;;15.35;11.10;;;16.60;37.80;;;;;;5142724;27;20159;-70
2021/04/18 11:56:50;;;;;;;16.27;11.40;;;16.60;37.70;;;;;;5131532;27;20483;-70
2021/04/18 11:59:16;;;;;;;14.70;10.63;;;16.60;37.70;;;;;;5134353;27;20020;-70
2021/04/18 12:01:42;;;;;;;13.85;10.07;;;16.70;37.90;;;;;;5134419;27;20026;-70
2021/04/18 12:04:08;;;;;;;14.90;11.07;;;16.70;38.00;;;;;;5134356;27;20031;-70
2021/04/18 12:06:34;;;;;;;12.23;8.88;;;16.80;37.80;;;;;;5128269;27;20023;-71
2021/04/18 12:08:59;;;;;;;14.32;10.30;;;16.90;38.00;;;;;;5134054;27;20047;-70
2021/04/18 12:11:25;;;;;;;13.80;10.27;;;17.10;37.80;;;;;;5137128;27;20024;-70
2021/04/18 12:13:51;;;;;;;15.70;10.68;;;17.20;37.30;;;;;;5113642;28;20102;-71
2021/04/18 12:16:17;;;;;;;13.13;10.23;;;17.40;36.90;;;;;;5135662;27;20425;-70
2021/04/18 12:18:44;;;;;;;16.33;11.05;;;17.40;36.70;;;;;;5134172;27;20023;-70
2021/04/18 12:21:10;;;;;;;13.13;9.70;;;17.60;36.70;;;;;;5124393;27;20073;-70
2021/04/18 12:23:37;;;;;;;15.90;9.57;;;17.70;36.20;;;;;;5113460;28;20024;-70
2021/04/18 12:26:03;;;;;;;13.18;9.63;;;17.80;36.10;;;;;;5113535;28;20075;-70
2021/04/18 12:28:29;;;;;;;15.45;10.70;;;17.90;36.40;;;;;;5113508;28;20028;-71
2021/04/18 12:30:55;;;;;;;19.05;11.80;;;18.00;36.10;;;;;;5116677;27;20024;-71
2021/04/18 12:33:21;;;;;;;13.15;10.38;;;18.00;35.60;;;;;;5133497;27;20480;-70